Bybee, Tennessee
Current Conditions -  °F | °C
As of 1:55 AM on Sunday 26 Oct 2014 (Local Time) from KMOR Reporting Station
Clear Clear  
Wind Chill: 57°   Ceiling: Unl
Heat Index: 57°   Visibility: 10mi
Dew Point: 50°   Wind: 3mph
Humidity: 77%   Direction: 230°SW
Pressure: 30.01"   Gusts: NA
Location:  36.05°N, 83.18°W
Report Text: KMOR 260555Z AUTO 23003KT 10SM CLR 14/10 A3001 RMK
Loading
Personal Weather Stations






























Interactive Weather Map
Tropical Storm Tracking
New forecast layout! Learn more

10-Day Weather Forecast

Advertisements
Track Severe Weather on mobile